UTDD

Dushanbe Airport

Dushanbe, Tajikistan
METAR UTDD 171000Z VRB01MPS 7000 OVC083 03/M03 Q1023 R09/19//60 NOSIG RMK QFE699/0932
Observed Flight Rules
Jan-17 @ 10:00 UTC (49 minutes ago) Marginal Visual Flight Rules
Wind Visibility Clouds
Variable at 2 knots 7,001 meters
  • Overcast at 8,300' AGL
Temperatures Readings
Current 3°C / 37°F
Dewpoint -3°C / 27°F
Humidity 65%
Altimeter 30.21" Hg
Pressure 1023 hPa
Elevation 803
METAR UTDD 171000Z VRB01MPS 7000 OVC083 03/M03 Q1023 R09/19//60 NOSIG RMK QFE699/0932
Observed Flight Rules
Jan-17 @ 10:00 UTC
(49 minutes ago)
MVFR
Wind Visibility
Variable at 2 knots 7,001 meters
Clouds
  • Overcast at 8,300' AGL
Temperature Dewpoint
3°C / 37°F -3°C / 27°F
Humidity Altimeter Pressure
65% 30.21" Hg 1023 hPa